TimeAKDT,TemperatureF,Dew PointF,Humidity,Sea Level PressureIn,VisibilityMPH,Wind Direction,Wind SpeedMPH,Gust SpeedMPH,PrecipitationIn,Events,Conditions,WindDirDegrees,DateUTC
12:16 AM,30.2,24.8,80,30.25,10.0,Calm,Calm,-,N/A,,Partly Cloudy,0,2013-03-29 08:16:00
12:36 AM,30.2,26.6,86,30.25,10.0,Calm,Calm,-,N/A,,Mostly Cloudy,0,2013-03-29 08:36:00
2:56 AM,30.2,26.6,86,30.26,10.0,Calm,Calm,-,N/A,,Overcast,0,2013-03-29 10:56:00
3:16 AM,30.2,26.6,86,30.27,10.0,Calm,Calm,-,N/A,,Overcast,0,2013-03-29 11:16:00
3:36 AM,30.2,26.6,86,30.27,10.0,Calm,Calm,-,N/A,,Overcast,0,2013-03-29 11:36:00
3:56 AM,30.2,26.6,86,30.27,10.0,Calm,Calm,-,N/A,,Overcast,0,2013-03-29 11:56:00
4:16 AM,30.2,26.6,86,30.27,10.0,Calm,Calm,-,N/A,,Overcast,0,2013-03-29 12:16:00
4:36 AM,30.2,26.6,86,30.26,10.0,Calm,Calm,-,N/A,,Overcast,0,2013-03-29 12:36:00
4:56 AM,30.2,26.6,86,30.26,10.0,NNW,4.6,-,N/A,,Overcast,340,2013-03-29 12:56:00
5:16 AM,30.2,26.6,86,30.27,10.0,West,3.5,-,N/A,,Overcast,270,2013-03-29 13:16:00
5:36 AM,30.2,26.6,86,30.26,10.0,North,3.5,-,N/A,,Overcast,360,2013-03-29 13:36:00
5:56 AM,30.2,26.6,86,30.27,10.0,Calm,Calm,-,N/A,,Overcast,0,2013-03-29 13:56:00
6:16 AM,30.2,26.6,86,30.26,10.0,North,3.5,-,N/A,,Overcast,360,2013-03-29 14:16:00
6:36 AM,32.0,26.6,80,30.27,10.0,NNW,4.6,-,N/A,,Overcast,340,2013-03-29 14:36:00
6:56 AM,32.0,26.6,80,30.27,10.0,Calm,Calm,-,N/A,,Overcast,0,2013-03-29 14:56:00
7:16 AM,32.0,26.6,80,30.27,10.0,Calm,Calm,-,N/A,,Overcast,0,2013-03-29 15:16:00
7:36 AM,32.0,26.6,80,30.28,10.0,NNW,4.6,-,N/A,,Overcast,330,2013-03-29 15:36:00
7:56 AM,32.0,26.6,80,30.28,10.0,NNW,4.6,-,N/A,,Overcast,330,2013-03-29 15:56:00
8:16 AM,33.8,28.4,81,30.28,10.0,NNW,4.6,-,N/A,,Overcast,330,2013-03-29 16:16:00
8:56 AM,33.8,28.4,81,30.29,10.0,NNW,4.6,-,N/A,,Overcast,340,2013-03-29 16:56:00
9:16 AM,33.8,28.4,81,30.30,10.0,North,4.6,-,N/A,,Overcast,350,2013-03-29 17:16:00
9:36 AM,35.6,28.4,75,30.29,10.0,Calm,Calm,-,N/A,,Overcast,0,2013-03-29 17:36:00
9:56 AM,35.6,28.4,75,30.29,10.0,Calm,Calm,-,N/A,,Overcast,0,2013-03-29 17:56:00
10:16 AM,35.6,26.6,70,30.30,10.0,Calm,Calm,-,N/A,,Overcast,0,2013-03-29 18:16:00
10:36 AM,35.6,28.4,75,30.30,10.0,SSE,3.5,-,N/A,,Overcast,160,2013-03-29 18:36:00
10:56 AM,35.6,28.4,75,30.30,10.0,WSW,4.6,-,N/A,,Overcast,250,2013-03-29 18:56:00
11:16 AM,35.6,28.4,75,30.30,10.0,Calm,Calm,-,N/A,,Overcast,0,2013-03-29 19:16:00
11:36 AM,37.4,28.4,70,30.30,10.0,Calm,Calm,-,N/A,,Overcast,0,2013-03-29 19:36:00
11:56 AM,37.4,28.4,70,30.31,10.0,Calm,Calm,-,N/A,,Overcast,0,2013-03-29 19:56:00
12:16 PM,37.4,28.4,70,30.31,10.0,Calm,Calm,-,N/A,,Overcast,0,2013-03-29 20:16:00
12:36 PM,39.2,28.4,65,30.31,10.0,Calm,Calm,-,N/A,,Overcast,0,2013-03-29 20:36:00
12:56 PM,39.2,28.4,65,30.31,10.0,NE,3.5,-,N/A,,Mostly Cloudy,40,2013-03-29 20:56:00
1:16 PM,39.2,28.4,65,30.31,10.0,East,3.5,-,N/A,,Overcast,100,2013-03-29 21:16:00
1:36 PM,39.2,28.4,65,30.31,10.0,Calm,Calm,-,N/A,,Overcast,0,2013-03-29 21:36:00
1:56 PM,39.2,28.4,65,30.30,10.0,SE,4.6,-,N/A,,Overcast,140,2013-03-29 21:56:00
2:16 PM,39.2,28.4,65,30.30,10.0,ESE,4.6,-,N/A,,Overcast,110,2013-03-29 22:16:00
2:36 PM,41.0,28.4,61,30.29,10.0,SSE,5.8,-,N/A,,Overcast,160,2013-03-29 22:36:00
3:56 PM,39.2,30.2,70,30.29,10.0,NW,8.1,-,N/A,,Overcast,320,2013-03-29 23:56:00
4:16 PM,37.4,30.2,75,30.28,10.0,NW,10.4,-,N/A,,Overcast,320,2013-03-30 00:16:00
4:36 PM,37.4,30.2,75,30.28,10.0,NW,8.1,-,N/A,,Overcast,320,2013-03-30 00:36:00
4:56 PM,37.4,30.2,75,30.28,10.0,NW,5.8,-,N/A,,Overcast,310,2013-03-30 00:56:00
5:16 PM,37.4,30.2,75,30.28,10.0,NNW,8.1,-,N/A,,Overcast,330,2013-03-30 01:16:00
5:36 PM,37.4,30.2,75,30.27,10.0,NW,8.1,-,N/A,,Overcast,320,2013-03-30 01:36:00
5:56 PM,35.6,30.2,81,30.27,10.0,NNW,9.2,-,N/A,,Overcast,340,2013-03-30 01:56:00
6:36 PM,35.6,30.2,81,30.28,10.0,NW,6.9,-,N/A,,Overcast,320,2013-03-30 02:36:00
6:56 PM,35.6,30.2,81,30.28,10.0,NNW,9.2,-,N/A,,Overcast,330,2013-03-30 02:56:00
7:16 PM,35.6,32.0,87,30.27,9.0,NNW,8.1,-,N/A,,Overcast,340,2013-03-30 03:16:00
7:36 PM,33.8,32.0,93,30.27,7.0,NNW,6.9,-,N/A,,Overcast,340,2013-03-30 03:36:00
7:56 PM,33.8,33.8,100,30.27,9.0,NNW,6.9,-,N/A,,Overcast,330,2013-03-30 03:56:00
8:16 PM,33.8,33.8,100,30.26,10.0,NNW,5.8,-,N/A,,Overcast,330,2013-03-30 04:16:00
8:36 PM,33.8,33.8,100,30.27,10.0,NNW,4.6,-,N/A,,Overcast,330,2013-03-30 04:36:00
8:56 PM,33.8,33.8,100,30.27,10.0,Calm,Calm,-,N/A,,Overcast,0,2013-03-30 04:56:00
9:16 PM,33.8,33.8,100,30.27,10.0,Calm,Calm,-,N/A,,Overcast,0,2013-03-30 05:16:00
9:36 PM,33.8,33.8,100,30.27,10.0,Calm,Calm,-,N/A,,Overcast,0,2013-03-30 05:36:00
9:56 PM,33.8,33.8,100,30.26,10.0,North,-9999.0,-,N/A,,Overcast,0,2013-03-30 05:56:00
10:16 PM,35.6,32.0,87,30.26,10.0,ESE,3.5,-,N/A,,Overcast,120,2013-03-30 06:16:00
10:36 PM,37.4,32.0,81,30.26,10.0,SE,11.5,-,N/A,,Overcast,130,2013-03-30 06:36:00
10:56 PM,37.4,32.0,81,30.25,10.0,SE,12.7,-,N/A,,Overcast,130,2013-03-30 06:56:00
11:16 PM,37.4,32.0,81,30.25,10.0,SE,15.0,24.2,N/A,,Overcast,140,2013-03-30 07:16:00
11:36 PM,37.4,32.0,81,30.25,10.0,SE,17.3,24.2,N/A,,Overcast,140,2013-03-30 07:36:00
11:56 PM,37.4,32.0,81,30.25,10.0,SE,16.1,24.2,N/A,,Overcast,140,2013-03-30 07:56:00